Singelgracht — PCGM — position and weather

sailwx.info

Track history (hours):
 
Tides and Currents Weather Stations Pressure Air Temp Water Temp Dewpoint Dewpoint Depression Visibility Wind Speed Wind Dir Waves Ship Positions

Singelgracht

Last reported at 2018-May-18 07:23 UTC. Time now 2018-May-20 12:03 UTC.
Position N 48°44' W 008°51'.

Length 168 m; beam 25 m.

Type: Cargo ship. MMSI: 245546000.

Date/timePositionNaut miles runAvg speedWind from/ knotsBaromVisibWave heightAir tempDewpointWater temp
2018-May-18 07:23N 48°44' W 008°51'616.3
2018-May-18 07:01N 48°46' W 008°43'816.1
2018-May-18 06:31N 48°48' W 008°31'816.0
2018-May-18 06:01N 48°51' W 008°20'815.9
2018-May-18 05:30N 48°53' W 008°08'815.8
2018-May-18 05:00N 48°56' W 007°57'915.9
2018-May-18 04:27N 48°59' W 007°44'715.9
2018-May-18 04:00N 49°02' W 007°34'816.1
2018-May-18 03:31N 49°04' W 007°23'816.4
2018-May-18 03:01N 49°07' W 007°11'816.7
2018-May-18 02:31N 49°09' W 006°59'816.9
2018-May-18 02:01N 49°12' W 006°46'917.4
2018-May-18 01:30N 49°15' W 006°34'917.7
2018-May-18 01:01N 49°17' W 006°21'918.0
2018-May-18 00:31N 49°20' W 006°08'918.2
2018-May-18 00:00N 49°23' W 005°54'918.3
2018-May-17 23:31N 49°25' W 005°41'918.3
2018-May-17 23:01N 49°28' W 005°27'918.1
2018-May-17 22:30N 49°30' W 005°14'917.7
2018-May-17 22:01N 49°33' W 005°01'917.0
2018-May-17 21:30N 49°36' W 004°48'816.7
2018-May-17 21:00N 49°38' W 004°36'816.0
2018-May-17 20:30N 49°41' W 004°25'1115.4
2018-May-17 19:48N 49°44' W 004°08'1015.0
2018-May-17 19:10N 49°48' W 003°55'215.1
2018-May-17 19:00N 49°48' W 003°51'715.1
2018-May-17 18:30N 49°51' W 003°40'815.4
2018-May-17 18:00N 49°53' W 003°29'816.0
2018-May-17 17:29N 49°55' W 003°16'816.6
2018-May-17 17:00N 49°58' W 003°05'1117.7
2018-May-17 16:24N 50°01' W 002°49'818.8
2018-May-17 15:58N 50°04' W 002°36'1119.8
2018-May-17 15:25N 50°07' W 002°20'820.3
2018-May-17 15:01N 50°09' W 002°08'1020.7
2018-May-17 14:30N 50°12' W 001°52'1020.3
2018-May-17 14:00N 50°15' W 001°37'1019.6
2018-May-17 13:30N 50°17' W 001°22'918.7
2018-May-17 13:01N 50°19' W 001°08'917.5
2018-May-17 12:29N 50°22' W 000°54'816.0
2018-May-17 12:00N 50°24' W 000°43'915.1
2018-May-17 11:25N 50°27' W 000°29'614.9
2018-May-17 11:00N 50°28' W 000°20'714.6
2018-May-17 10:31N 50°30' W 000°09'714.4
2018-May-17 10:00N 50°31' E 000°02'714.3
2018-May-17 09:31N 50°33' E 000°13'814.6
2018-May-17 08:59N 50°35' E 000°25'715.5
2018-May-17 08:31N 50°38' E 000°36'816.7
2018-May-17 08:01N 50°43' E 000°47'918.0
2018-May-17 07:30N 50°48' E 000°58'2218.6
2018-May-17 06:18N 51°02' E 001°25'518.4
2018-May-17 06:01N 51°05' E 001°32'917.6
2018-May-17 05:31N 51°11' E 001°43'816.6
2018-May-17 05:01N 51°19' E 001°48'815.8
2018-May-17 04:30N 51°26' E 001°54'714.9
2018-May-17 04:00N 51°32' E 002°01'714.8
2018-May-17 03:30N 51°37' E 002°09'714.7
2018-May-17 03:00N 51°43' E 002°17'814.5
2018-May-17 02:29N 51°48' E 002°26'714.6
2018-May-17 02:00N 51°53' E 002°33'815.0
2018-May-17 01:30N 51°59' E 002°41'815.4
2018-May-17 01:00N 52°05' E 002°50'816.1
2018-May-17 00:30N 52°11' E 002°58'816.7
2018-May-17 00:00N 52°18' E 003°06'817.0
2018-May-16 23:30N 52°24' E 003°14'917.3
2018-May-16 22:58N 52°32' E 003°23'817.3
2018-May-16 22:30N 52°38' E 003°31'917.4
2018-May-16 22:00N 52°45' E 003°40'917.5
2018-May-16 21:30N 52°51' E 003°50'917.2
2018-May-16 21:01N 52°57' E 004°01'816.8
2018-May-16 20:30N 53°03' E 004°11'816.3
2018-May-16 20:00N 53°08' E 004°21'2215.6
2018-May-16 18:36N 53°28' E 004°38'114.6
2018-May-16 18:30N 53°28' E 004°40'714.6
2018-May-16 18:01N 53°31' E 004°51'714.2
2018-May-16 17:30N 53°33' E 005°02'714.5
2018-May-16 17:00N 53°36' E 005°14'3016.0
2018-May-16 15:09N 53°45' E 006°02'216.7
2018-May-16 15:00N 53°46' E 006°06'611.2
2018-May-16 14:28N 53°43' E 006°14'5 9.5
2018-May-16 13:55N 53°38' E 006°17'4 6.6
2018-May-16 13:23N 53°37' E 006°23'513.1
2018-May-16 13:00N 53°37' E 006°31'15 2.3
2018-May-16 06:28N 53°27' E 006°50'0 0.0
2018-May-16 05:58N 53°27' E 006°50'0 0.0
2018-May-16 05:22N 53°27' E 006°50'0 0.0
2018-May-16 04:16N 53°27' E 006°50'0 0.0
2018-May-16 03:58N 53°27' E 006°50'0 0.0
2018-May-16 03:28N 53°27' E 006°50'2 0.4
2018-May-15 21:45N 53°30' E 006°49'713.5
2018-May-15 21:15N 53°34' E 006°40'7614.2
2018-May-15 15:55N 54°49' E 006°35'716.7
2018-May-15 15:31N 54°56' E 006°37'816.6
2018-May-15 15:00N 55°04' E 006°39'816.5
2018-May-15 14:30N 55°13' E 006°41'916.6
2018-May-15 13:57N 55°21' E 006°44'1716.6
2018-May-15 12:54N 55°38' E 006°55'716.7
2018-May-15 12:28N 55°44' E 007°00'8116.7
2018-May-15 07:36N 56°60' E 007°54'216.4
2018-May-15 07:27N 57°02' E 007°57'816.4
2018-May-15 06:56N 57°09' E 008°06'716.3
2018-May-15 06:30N 57°14' E 008°14'816.1
2018-May-15 06:00N 57°20' E 008°24'816.3
2018-May-15 05:30N 57°25' E 008°35'816.4
2018-May-15 05:00N 57°30' E 008°48'816.5
2018-May-15 04:30N 57°34' E 009°01'816.5
2018-May-15 04:00N 57°39' E 009°13'816.3
2018-May-15 03:31N 57°42' E 009°27'816.5
2018-May-15 03:01N 57°44' E 009°43'816.4
2018-May-15 02:30N 57°47' E 009°57'816.8
2018-May-15 02:01N 57°49' E 010°12'917.1
2018-May-15 01:31N 57°51' E 010°27'816.3
2018-May-15 01:01N 57°52' E 010°43'816.9
2018-May-15 00:30N 57°47' E 010°57'817.0
2018-May-15 00:01N 57°43' E 011°10'917.1
2018-May-14 23:31N 57°38' E 011°23'816.3
2018-May-14 23:01N 57°34' E 011°37'3 4.8
2018-May-14 22:28N 57°36' E 011°41'0 0.0
2018-May-14 21:58N 57°36' E 011°41'0 0.0
2018-May-14 21:28N 57°36' E 011°41'0 0.0
2018-May-14 20:58N 57°36' E 011°41'0 0.2
2018-May-14 20:28N 57°36' E 011°41'0 0.1
2018-May-14 19:58N 57°36' E 011°41'0 0.0
2018-May-14 19:28N 57°36' E 011°41'0 0.0
2018-May-14 18:58N 57°36' E 011°41'0 0.0
2018-May-14 18:28N 57°36' E 011°41'0 0.0
2018-May-14 17:58N 57°36' E 011°41'0 0.0
2018-May-14 17:28N 57°36' E 011°41'0 0.0
2018-May-14 16:58N 57°36' E 011°41'0 0.1
2018-May-14 16:28N 57°36' E 011°41'0 0.1
2018-May-14 16:00N 57°36' E 011°41'3 5.0
2018-May-14 15:30N 57°33' E 011°40'5 9.3
2018-May-14 15:01N 57°29' E 011°37'917.0
2018-May-14 14:30N 57°21' E 011°37'917.2
2018-May-14 14:00N 57°12' E 011°38'816.7
2018-May-14 13:30N 57°04' E 011°42'9115.1
2018-May-14 07:31N 55°39' E 010°47'013.7
2018-May-14 07:30N 55°38' E 010°47'915.5
2018-May-14 06:57N 55°30' E 010°53'715.0
2018-May-14 06:30N 55°25' E 010°59'714.2
2018-May-14 06:00N 55°18' E 011°03'711.9
2018-May-14 05:24N 55°11' E 011°04'512.4
2018-May-14 05:00N 55°07' E 010°60'713.8
2018-May-14 04:30N 54°60' E 010°59'612.6
2018-May-14 04:00N 54°55' E 010°52'714.5
2018-May-14 03:30N 54°48' E 010°49'612.5
2018-May-14 03:01N 54°42' E 010°47'612.4
2018-May-14 02:30N 54°38' E 010°55'713.4
2018-May-14 02:00N 54°36' E 011°06'714.5
2018-May-14 01:31N 54°34' E 011°18'714.6
2018-May-14 01:00N 54°31' E 011°29'714.6
2018-May-14 00:30N 54°28' E 011°41'714.3
2018-May-14 00:00N 54°27' E 011°53'914.7
2018-May-13 23:25N 54°27' E 012°08'5 8.7
2018-May-13 22:48N 54°31' E 012°13'711.7
2018-May-13 22:15N 54°37' E 012°17'414.1
2018-May-13 21:58N 54°39' E 012°23'715.5
2018-May-13 21:29N 54°43' E 012°35'715.1
2018-May-13 21:01N 54°47' E 012°44'714.6
2018-May-13 20:30N 54°50' E 012°56'1817.2
2018-May-13 19:28N 54°57' E 013°25'1417.7
2018-May-13 18:42N 55°01' E 013°47'517.7
2018-May-13 18:26N 55°02' E 013°55'717.1
2018-May-13 18:00N 55°05' E 014°07'917.3
2018-May-13 17:30N 55°12' E 014°16'917.4
2018-May-13 17:01N 55°19' E 014°25'917.4
2018-May-13 16:31N 55°26' E 014°34'917.4
2018-May-13 16:00N 55°31' E 014°47'917.6
2018-May-13 15:30N 55°35' E 015°01'917.3
2018-May-13 15:00N 55°38' E 015°15'917.4
2018-May-13 14:30N 55°42' E 015°29'917.5
2018-May-13 14:01N 55°47' E 015°42'917.4
2018-May-13 13:30N 55°52' E 015°55'917.4
2018-May-13 13:00N 55°57' E 016°08'917.2
2018-May-13 12:30N 56°01' E 016°21'917.4
2018-May-13 12:00N 56°06' E 016°34'816.8
2018-May-13 11:30N 56°11' E 016°45'917.2
2018-May-13 11:00N 56°19' E 016°51'917.1
2018-May-13 10:30N 56°27' E 016°57'917.2
2018-May-13 10:00N 56°35' E 017°02'917.1
2018-May-13 09:30N 56°43' E 017°08'12517.2
2018-May-13 02:15N 58°34' E 018°55'7714.7
2018-May-12 21:00N 59°48' E 019°38'816.7
2018-May-12 20:30N 59°55' E 019°27'817.1
2018-May-12 20:00N 60°01' E 019°16'917.1
2018-May-12 19:30N 60°08' E 019°05'815.9
2018-May-12 19:00N 60°15' E 019°00'816.7
2018-May-12 18:30N 60°24' E 018°60'1115.6
2018-May-12 17:50N 60°34' E 019°02'65 7.1
2018-May-12 08:36N 61°09' E 020°54'113.4
2018-May-12 08:30N 61°09' E 020°57'714.7
2018-May-12 08:00N 61°07' E 021°12'5 9.7
2018-May-12 07:30N 61°06' E 021°22'3 3.5
2018-May-12 06:48N 61°08' E 021°26'0 0.1
2018-May-12 06:26N 61°08' E 021°26'0 0.0
2018-May-12 05:57N 61°08' E 021°26'0 0.0
2018-May-12 05:24N 61°08' E 021°26'0 0.0
2018-May-12 04:55N 61°08' E 021°26'0 0.0
2018-May-12 04:25N 61°08' E 021°26'0 0.0
2018-May-12 04:00N 61°08' E 021°26'0 0.0
2018-May-12 03:17N 61°08' E 021°26'0 0.0
2018-May-12 02:52N 61°08' E 021°26'0 0.0
2018-May-12 02:31N 61°08' E 021°26'0 0.0
2018-May-12 01:55N 61°08' E 021°26'0 0.0
2018-May-12 01:30N 61°08' E 021°26'0 0.0
2018-May-12 00:59N 61°08' E 021°26'0 0.0
2018-May-12 00:30N 61°08' E 021°26'0 0.0
2018-May-11 23:59N 61°08' E 021°26'0 0.0
2018-May-11 23:30N 61°08' E 021°26'0 0.0
2018-May-11 22:58N 61°08' E 021°26'0 0.0
2018-May-11 22:30N 61°08' E 021°26'0 0.0
2018-May-11 21:58N 61°08' E 021°26'0 0.0
2018-May-11 21:26N 61°08' E 021°26'0 0.0
2018-May-11 21:00N 61°08' E 021°26'0 0.0
2018-May-11 20:29N 61°08' E 021°26'0 0.0
2018-May-11 19:54N 61°08' E 021°26'0 0.0
2018-May-11 19:20N 61°08' E 021°26'0 0.0
2018-May-11 18:50N 61°08' E 021°26'0 0.0
2018-May-11 18:30N 61°08' E 021°26'0 0.0
2018-May-11 17:58N 61°08' E 021°26'0 0.0
2018-May-11 17:27N 61°08' E 021°26'0 0.0
2018-May-11 16:50N 61°08' E 021°26'0 0.0
2018-May-11 16:25N 61°08' E 021°26'0 0.0
2018-May-11 15:52N 61°08' E 021°26'0 0.0
2018-May-11 15:23N 61°08' E 021°26'0 0.0
2018-May-11 14:58N 61°08' E 021°26'0 0.0
2018-May-11 14:27N 61°08' E 021°26'0 0.0
2018-May-11 13:57N 61°08' E 021°26'0 0.0
2018-May-11 13:29N 61°08' E 021°26'0 0.0
2018-May-11 12:55N 61°08' E 021°26'0 0.0
2018-May-11 12:30N 61°08' E 021°26'0 0.0
2018-May-11 11:59N 61°08' E 021°26'0 0.0
2018-May-11 11:28N 61°08' E 021°26'0 0.0
2018-May-11 11:00N 61°08' E 021°26'0 0.0
2018-May-11 10:29N 61°08' E 021°26'0 0.0
2018-May-11 09:58N 61°08' E 021°26'0 0.0
2018-May-11 09:25N 61°08' E 021°26'0 0.0
2018-May-11 09:00N 61°08' E 021°26'0 0.0
2018-May-11 08:29N 61°08' E 021°26'0 0.0
2018-May-11 07:59N 61°08' E 021°26'0 0.0
2018-May-11 07:30N 61°08' E 021°26'0 0.0
2018-May-11 06:59N 61°08' E 021°26'0 0.0
2018-May-11 06:29N 61°08' E 021°26'0 0.0
2018-May-11 05:55N 61°08' E 021°26'0 0.0
2018-May-11 05:30N 61°08' E 021°26'0 0.0
2018-May-11 04:59N 61°08' E 021°26'0 0.0
2018-May-11 04:30N 61°08' E 021°26'0 0.0
2018-May-11 03:59N 61°08' E 021°26'0 0.0
2018-May-11 03:28N 61°08' E 021°26'0 0.0
2018-May-11 02:49N 61°08' E 021°26'0 0.0
2018-May-11 02:30N 61°08' E 021°26'0 0.0
2018-May-11 01:54N 61°08' E 021°26'0 0.0
2018-May-11 01:20N 61°08' E 021°26'0 0.0
2018-May-11 00:58N 61°08' E 021°26'0 0.0
2018-May-11 00:19N 61°08' E 021°26'0 0.0
2018-May-10 23:57N 61°08' E 021°26'0 0.0
2018-May-10 23:28N 61°08' E 021°26'0 0.0
2018-May-10 22:59N 61°08' E 021°26'0 0.0
2018-May-10 22:29N 61°08' E 021°26'0 0.0
2018-May-10 22:00N 61°08' E 021°26'0 0.0
2018-May-10 21:25N 61°08' E 021°26'0 0.0
2018-May-10 20:58N 61°08' E 021°26'0 0.0
2018-May-10 20:27N 61°08' E 021°26'0 0.0
2018-May-10 19:59N 61°08' E 021°26'0 0.0
2018-May-10 19:28N 61°08' E 021°26'0 0.0
2018-May-10 18:55N 61°08' E 021°26'0 0.0
2018-May-10 18:24N 61°08' E 021°26'0 0.0
2018-May-10 18:00N 61°08' E 021°26'0 0.0
2018-May-10 17:28N 61°08' E 021°26'0 0.0
2018-May-10 16:49N 61°08' E 021°26'0 0.0
2018-May-10 16:17N 61°08' E 021°26'0 0.0
2018-May-10 15:52N 61°08' E 021°26'0 0.0
2018-May-10 15:22N 61°08' E 021°26'0 0.0
2018-May-10 14:51N 61°08' E 021°26'0 0.0
2018-May-10 14:30N 61°08' E 021°26'0 0.0
2018-May-10 13:58N 61°08' E 021°26'0 0.0
2018-May-10 13:26N 61°08' E 021°26'0 0.0
2018-May-10 12:57N 61°08' E 021°26'0 0.0
2018-May-10 12:29N 61°08' E 021°26'0 0.0
2018-May-10 11:55N 61°08' E 021°26'0 0.0
2018-May-10 11:29N 61°08' E 021°26'0 0.0
2018-May-10 10:57N 61°08' E 021°26'0 0.0
2018-May-10 10:29N 61°08' E 021°26'0 0.0
2018-May-10 09:57N 61°08' E 021°26'0 0.0
2018-May-10 09:29N 61°08' E 021°26'0 0.0
2018-May-10 09:00N 61°08' E 021°26'0 0.0
2018-May-10 08:28N 61°08' E 021°26'0 0.0
2018-May-10 07:59N 61°08' E 021°26'0 0.0
2018-May-10 07:28N 61°08' E 021°26'0 0.0
2018-May-10 06:52N 61°08' E 021°26'0 0.0
2018-May-10 06:28N 61°08' E 021°26'0 0.0
2018-May-10 05:54N 61°08' E 021°26'0 0.0
2018-May-10 05:28N 61°08' E 021°26'0 0.0
2018-May-10 04:59N 61°08' E 021°26'0 0.0
2018-May-10 04:28N 61°08' E 021°26'0 0.0
2018-May-10 04:00N 61°08' E 021°26'0 0.0
2018-May-10 03:30N 61°08' E 021°26'0 0.0
2018-May-10 03:00N 61°08' E 021°26'0 0.0
2018-May-10 02:27N 61°08' E 021°26'0 0.0
2018-May-10 01:58N 61°08' E 021°26'0 0.0
2018-May-10 01:19N 61°08' E 021°26'0 0.0
2018-May-10 00:52N 61°08' E 021°26'0 0.0
2018-May-10 00:19N 61°08' E 021°26'0 0.0
2018-May-09 23:54N 61°08' E 021°26'0 0.0
2018-May-09 23:25N 61°08' E 021°26'0 0.0
2018-May-09 22:55N 61°08' E 021°26'0 0.0
2018-May-09 22:28N 61°08' E 021°26'0 0.0
2018-May-09 21:55N 61°08' E 021°26'0 0.0
2018-May-09 21:30N 61°08' E 021°26'0 0.0
2018-May-09 20:56N 61°08' E 021°26'0 0.0
2018-May-09 20:29N 61°08' E 021°26'0 0.0
2018-May-09 19:49N 61°08' E 021°26'0 0.0
2018-May-09 19:28N 61°08' E 021°26'0 0.0
2018-May-09 18:49N 61°08' E 021°26'0 0.0
2018-May-09 18:22N 61°08' E 021°26'0 0.0
2018-May-09 17:49N 61°08' E 021°26'0 0.0
2018-May-09 17:19N 61°08' E 021°26'0 0.0
2018-May-09 16:46N 61°08' E 021°26'0 0.0
2018-May-09 16:16N 61°08' E 021°26'0 0.0
2018-May-09 15:49N 61°08' E 021°26'0 0.0
2018-May-09 15:28N 61°08' E 021°26'0 0.0
2018-May-09 14:52N 61°08' E 021°26'0 0.0
2018-May-09 14:30N 61°08' E 021°26'0 0.0
2018-May-09 13:58N 61°08' E 021°26'0 0.0
2018-May-09 13:28N 61°08' E 021°26'0 0.0
2018-May-09 12:55N 61°08' E 021°26'0 0.0
2018-May-09 12:28N 61°08' E 021°26'0 0.0
2018-May-09 11:55N 61°08' E 021°26'0 0.0
2018-May-09 11:22N 61°08' E 021°26'0 0.0
2018-May-09 10:59N 61°08' E 021°26'0 0.0
2018-May-09 10:25N 61°08' E 021°26'0 0.0
2018-May-09 10:00N 61°08' E 021°26'0 0.0
2018-May-09 09:28N 61°08' E 021°26'0 0.0
2018-May-09 09:00N 61°08' E 021°26'0 0.0
2018-May-09 08:30N 61°08' E 021°26'0 0.0
2018-May-09 08:00N 61°08' E 021°26'0 0.0
2018-May-09 07:30N 61°08' E 021°26'0 0.0
2018-May-09 06:57N 61°08' E 021°26'0 0.0
2018-May-09 06:20N 61°08' E 021°26'0 0.0
2018-May-09 05:51N 61°08' E 021°26'0 0.0
2018-May-09 05:20N 61°08' E 021°26'0 0.0
2018-May-09 05:00N 61°08' E 021°26'0 0.0
2018-May-09 04:27N 61°08' E 021°26'0 0.0
2018-May-09 03:58N 61°08' E 021°26'0 0.0
2018-May-09 03:30N 61°08' E 021°26'0 0.0
2018-May-09 02:59N 61°08' E 021°26'0 0.0
2018-May-09 02:29N 61°08' E 021°26'0 0.0
2018-May-09 01:48N 61°08' E 021°26'0 0.0
2018-May-09 01:30N 61°08' E 021°26'0 0.0
2018-May-09 00:59N 61°08' E 021°26'0 0.0
2018-May-09 00:28N 61°08' E 021°26'0 0.0
2018-May-08 23:58N 61°08' E 021°26'0 0.0
2018-May-08 23:27N 61°08' E 021°26'0 0.0
2018-May-08 22:57N 61°08' E 021°26'0 0.0
2018-May-08 22:29N 61°08' E 021°26'0 0.0
2018-May-08 21:58N 61°08' E 021°26'0 0.0
2018-May-08 21:12N 61°08' E 021°26'0 0.0
2018-May-08 21:00N 61°08' E 021°26'0 0.0
2018-May-08 20:30N 61°08' E 021°26'0 0.0
2018-May-08 20:00N 61°08' E 021°26'0 0.0
2018-May-08 19:26N 61°08' E 021°26'0 0.0
2018-May-08 19:00N 61°08' E 021°26'0 0.0
2018-May-08 18:29N 61°08' E 021°26'0 0.0
2018-May-08 17:58N 61°08' E 021°26'0 0.0
2018-May-08 17:30N 61°08' E 021°26'0 0.0
2018-May-08 17:00N 61°08' E 021°26'0 0.0
2018-May-08 16:30N 61°08' E 021°26'0 0.0
2018-May-08 16:00N 61°08' E 021°26'0 0.0
2018-May-08 15:30N 61°08' E 021°26'0 0.0
2018-May-08 15:00N 61°08' E 021°26'0 0.0
2018-May-08 14:30N 61°08' E 021°26'0 0.0
2018-May-08 13:59N 61°08' E 021°26'0 0.0
2018-May-08 13:24N 61°08' E 021°26'0 0.0
2018-May-08 12:55N 61°08' E 021°26'0 0.0
2018-May-08 12:30N 61°08' E 021°26'0 0.0
2018-May-08 11:57N 61°08' E 021°26'0 0.0
2018-May-08 11:30N 61°08' E 021°26'0 0.0
2018-May-08 10:51N 61°08' E 021°26'0 0.0
2018-May-08 10:30N 61°08' E 021°26'0 0.0
2018-May-08 09:54N 61°08' E 021°26'0 0.0
2018-May-08 09:30N 61°08' E 021°26'0 0.0
2018-May-08 08:51N 61°08' E 021°26'0 0.0
2018-May-08 08:30N 61°08' E 021°26'0 0.0
2018-May-08 07:54N 61°08' E 021°26'0 0.0
2018-May-08 07:26N 61°08' E 021°26'  
Track history (hours):
 
Tides and Currents Weather Stations Pressure Air Temp Water Temp Dewpoint Dewpoint Depression Visibility Wind Speed Wind Dir Waves Ship Positions

Singelgracht

Last reported at 2018-May-18 07:23 UTC. Time now 2018-May-20 12:03 UTC.
Position N 48°44' W 008°51'.

Length 168 m; beam 25 m.

Type: Cargo ship. MMSI: 245546000.

Date/timePositionNaut miles runAvg speedWind from/ knotsBaromVisibWave heightAir tempDewpointWater temp
2018-May-18 07:23N 48°44' W 008°51'616.3
2018-May-18 07:01N 48°46' W 008°43'816.1
2018-May-18 06:31N 48°48' W 008°31'816.0
2018-May-18 06:01N 48°51' W 008°20'815.9
2018-May-18 05:30N 48°53' W 008°08'815.8
2018-May-18 05:00N 48°56' W 007°57'915.9
2018-May-18 04:27N 48°59' W 007°44'715.9
2018-May-18 04:00N 49°02' W 007°34'816.1
2018-May-18 03:31N 49°04' W 007°23'816.4
2018-May-18 03:01N 49°07' W 007°11'816.7
2018-May-18 02:31N 49°09' W 006°59'816.9
2018-May-18 02:01N 49°12' W 006°46'917.4
2018-May-18 01:30N 49°15' W 006°34'917.7
2018-May-18 01:01N 49°17' W 006°21'918.0
2018-May-18 00:31N 49°20' W 006°08'918.2
2018-May-18 00:00N 49°23' W 005°54'918.3
2018-May-17 23:31N 49°25' W 005°41'918.3
2018-May-17 23:01N 49°28' W 005°27'918.1
2018-May-17 22:30N 49°30' W 005°14'917.7
2018-May-17 22:01N 49°33' W 005°01'917.0
2018-May-17 21:30N 49°36' W 004°48'816.7
2018-May-17 21:00N 49°38' W 004°36'816.0
2018-May-17 20:30N 49°41' W 004°25'1115.4
2018-May-17 19:48N 49°44' W 004°08'1015.0
2018-May-17 19:10N 49°48' W 003°55'215.1
2018-May-17 19:00N 49°48' W 003°51'715.1
2018-May-17 18:30N 49°51' W 003°40'815.4
2018-May-17 18:00N 49°53' W 003°29'816.0
2018-May-17 17:29N 49°55' W 003°16'816.6
2018-May-17 17:00N 49°58' W 003°05'1117.7
2018-May-17 16:24N 50°01' W 002°49'818.8
2018-May-17 15:58N 50°04' W 002°36'1119.8
2018-May-17 15:25N 50°07' W 002°20'820.3
2018-May-17 15:01N 50°09' W 002°08'1020.7
2018-May-17 14:30N 50°12' W 001°52'1020.3
2018-May-17 14:00N 50°15' W 001°37'1019.6
2018-May-17 13:30N 50°17' W 001°22'918.7
2018-May-17 13:01N 50°19' W 001°08'917.5
2018-May-17 12:29N 50°22' W 000°54'816.0
2018-May-17 12:00N 50°24' W 000°43'915.1
2018-May-17 11:25N 50°27' W 000°29'614.9
2018-May-17 11:00N 50°28' W 000°20'714.6
2018-May-17 10:31N 50°30' W 000°09'714.4
2018-May-17 10:00N 50°31' E 000°02'714.3
2018-May-17 09:31N 50°33' E 000°13'814.6
2018-May-17 08:59N 50°35' E 000°25'715.5
2018-May-17 08:31N 50°38' E 000°36'816.7
2018-May-17 08:01N 50°43' E 000°47'918.0
2018-May-17 07:30N 50°48' E 000°58'2218.6
2018-May-17 06:18N 51°02' E 001°25'518.4
2018-May-17 06:01N 51°05' E 001°32'917.6
2018-May-17 05:31N 51°11' E 001°43'816.6
2018-May-17 05:01N 51°19' E 001°48'815.8
2018-May-17 04:30N 51°26' E 001°54'714.9
2018-May-17 04:00N 51°32' E 002°01'714.8
2018-May-17 03:30N 51°37' E 002°09'714.7
2018-May-17 03:00N 51°43' E 002°17'814.5
2018-May-17 02:29N 51°48' E 002°26'714.6
2018-May-17 02:00N 51°53' E 002°33'815.0
2018-May-17 01:30N 51°59' E 002°41'815.4
2018-May-17 01:00N 52°05' E 002°50'816.1
2018-May-17 00:30N 52°11' E 002°58'816.7
2018-May-17 00:00N 52°18' E 003°06'817.0
2018-May-16 23:30N 52°24' E 003°14'917.3
2018-May-16 22:58N 52°32' E 003°23'817.3
2018-May-16 22:30N 52°38' E 003°31'917.4
2018-May-16 22:00N 52°45' E 003°40'917.5
2018-May-16 21:30N 52°51' E 003°50'917.2
2018-May-16 21:01N 52°57' E 004°01'816.8
2018-May-16 20:30N 53°03' E 004°11'816.3
2018-May-16 20:00N 53°08' E 004°21'2215.6
2018-May-16 18:36N 53°28' E 004°38'114.6
2018-May-16 18:30N 53°28' E 004°40'714.6
2018-May-16 18:01N 53°31' E 004°51'714.2
2018-May-16 17:30N 53°33' E 005°02'714.5
2018-May-16 17:00N 53°36' E 005°14'3016.0
2018-May-16 15:09N 53°45' E 006°02'216.7
2018-May-16 15:00N 53°46' E 006°06'611.2
2018-May-16 14:28N 53°43' E 006°14'5 9.5
2018-May-16 13:55N 53°38' E 006°17'4 6.6
2018-May-16 13:23N 53°37' E 006°23'513.1
2018-May-16 13:00N 53°37' E 006°31'15 2.3
2018-May-16 06:28N 53°27' E 006°50'0 0.0
2018-May-16 05:58N 53°27' E 006°50'0 0.0
2018-May-16 05:22N 53°27' E 006°50'0 0.0
2018-May-16 04:16N 53°27' E 006°50'0 0.0
2018-May-16 03:58N 53°27' E 006°50'0 0.0
2018-May-16 03:28N 53°27' E 006°50'2 0.4
2018-May-15 21:45N 53°30' E 006°49'713.5
2018-May-15 21:15N 53°34' E 006°40'7614.2
2018-May-15 15:55N 54°49' E 006°35'716.7
2018-May-15 15:31N 54°56' E 006°37'816.6
2018-May-15 15:00N 55°04' E 006°39'816.5
2018-May-15 14:30N 55°13' E 006°41'916.6
2018-May-15 13:57N 55°21' E 006°44'1716.6
2018-May-15 12:54N 55°38' E 006°55'716.7
2018-May-15 12:28N 55°44' E 007°00'8116.7
2018-May-15 07:36N 56°60' E 007°54'216.4
2018-May-15 07:27N 57°02' E 007°57'816.4
2018-May-15 06:56N 57°09' E 008°06'716.3
2018-May-15 06:30N 57°14' E 008°14'816.1
2018-May-15 06:00N 57°20' E 008°24'816.3
2018-May-15 05:30N 57°25' E 008°35'816.4
2018-May-15 05:00N 57°30' E 008°48'816.5
2018-May-15 04:30N 57°34' E 009°01'816.5
2018-May-15 04:00N 57°39' E 009°13'816.3
2018-May-15 03:31N 57°42' E 009°27'816.5
2018-May-15 03:01N 57°44' E 009°43'816.4
2018-May-15 02:30N 57°47' E 009°57'816.8
2018-May-15 02:01N 57°49' E 010°12'917.1
2018-May-15 01:31N 57°51' E 010°27'816.3
2018-May-15 01:01N 57°52' E 010°43'816.9
2018-May-15 00:30N 57°47' E 010°57'817.0
2018-May-15 00:01N 57°43' E 011°10'917.1
2018-May-14 23:31N 57°38' E 011°23'816.3
2018-May-14 23:01N 57°34' E 011°37'3 4.8
2018-May-14 22:28N 57°36' E 011°41'0 0.0
2018-May-14 21:58N 57°36' E 011°41'0 0.0
2018-May-14 21:28N 57°36' E 011°41'0 0.0
2018-May-14 20:58N 57°36' E 011°41'0 0.2
2018-May-14 20:28N 57°36' E 011°41'0 0.1
2018-May-14 19:58N 57°36' E 011°41'0 0.0
2018-May-14 19:28N 57°36' E 011°41'0 0.0
2018-May-14 18:58N 57°36' E 011°41'0 0.0
2018-May-14 18:28N 57°36' E 011°41'0 0.0
2018-May-14 17:58N 57°36' E 011°41'0 0.0
2018-May-14 17:28N 57°36' E 011°41'0 0.0
2018-May-14 16:58N 57°36' E 011°41'0 0.1
2018-May-14 16:28N 57°36' E 011°41'0 0.1
2018-May-14 16:00N 57°36' E 011°41'3 5.0
2018-May-14 15:30N 57°33' E 011°40'5 9.3
2018-May-14 15:01N 57°29' E 011°37'917.0
2018-May-14 14:30N 57°21' E 011°37'917.2
2018-May-14 14:00N 57°12' E 011°38'816.7
2018-May-14 13:30N 57°04' E 011°42'9115.1
2018-May-14 07:31N 55°39' E 010°47'013.7
2018-May-14 07:30N 55°38' E 010°47'915.5
2018-May-14 06:57N 55°30' E 010°53'715.0
2018-May-14 06:30N 55°25' E 010°59'714.2
2018-May-14 06:00N 55°18' E 011°03'711.9
2018-May-14 05:24N 55°11' E 011°04'512.4
2018-May-14 05:00N 55°07' E 010°60'713.8
2018-May-14 04:30N 54°60' E 010°59'612.6
2018-May-14 04:00N 54°55' E 010°52'714.5
2018-May-14 03:30N 54°48' E 010°49'612.5
2018-May-14 03:01N 54°42' E 010°47'612.4
2018-May-14 02:30N 54°38' E 010°55'713.4
2018-May-14 02:00N 54°36' E 011°06'714.5
2018-May-14 01:31N 54°34' E 011°18'714.6
2018-May-14 01:00N 54°31' E 011°29'714.6
2018-May-14 00:30N 54°28' E 011°41'714.3
2018-May-14 00:00N 54°27' E 011°53'914.7
2018-May-13 23:25N 54°27' E 012°08'5 8.7
2018-May-13 22:48N 54°31' E 012°13'711.7
2018-May-13 22:15N 54°37' E 012°17'414.1
2018-May-13 21:58N 54°39' E 012°23'715.5
2018-May-13 21:29N 54°43' E 012°35'715.1
2018-May-13 21:01N 54°47' E 012°44'714.6
2018-May-13 20:30N 54°50' E 012°56'1817.2
2018-May-13 19:28N 54°57' E 013°25'1417.7
2018-May-13 18:42N 55°01' E 013°47'517.7
2018-May-13 18:26N 55°02' E 013°55'717.1
2018-May-13 18:00N 55°05' E 014°07'917.3
2018-May-13 17:30N 55°12' E 014°16'917.4
2018-May-13 17:01N 55°19' E 014°25'917.4
2018-May-13 16:31N 55°26' E 014°34'917.4
2018-May-13 16:00N 55°31' E 014°47'917.6
2018-May-13 15:30N 55°35' E 015°01'917.3
2018-May-13 15:00N 55°38' E 015°15'917.4
2018-May-13 14:30N 55°42' E 015°29'917.5
2018-May-13 14:01N 55°47' E 015°42'917.4
2018-May-13 13:30N 55°52' E 015°55'917.4
2018-May-13 13:00N 55°57' E 016°08'917.2
2018-May-13 12:30N 56°01' E 016°21'917.4
2018-May-13 12:00N 56°06' E 016°34'816.8
2018-May-13 11:30N 56°11' E 016°45'917.2
2018-May-13 11:00N 56°19' E 016°51'917.1
2018-May-13 10:30N 56°27' E 016°57'917.2
2018-May-13 10:00N 56°35' E 017°02'917.1
2018-May-13 09:30N 56°43' E 017°08'12517.2
2018-May-13 02:15N 58°34' E 018°55'7714.7
2018-May-12 21:00N 59°48' E 019°38'816.7
2018-May-12 20:30N 59°55' E 019°27'817.1
2018-May-12 20:00N 60°01' E 019°16'917.1
2018-May-12 19:30N 60°08' E 019°05'815.9
2018-May-12 19:00N 60°15' E 019°00'816.7
2018-May-12 18:30N 60°24' E 018°60'1115.6
2018-May-12 17:50N 60°34' E 019°02'65 7.1
2018-May-12 08:36N 61°09' E 020°54'113.4
2018-May-12 08:30N 61°09' E 020°57'714.7
2018-May-12 08:00N 61°07' E 021°12'5 9.7
2018-May-12 07:30N 61°06' E 021°22'3 3.5
2018-May-12 06:48N 61°08' E 021°26'0 0.1
2018-May-12 06:26N 61°08' E 021°26'0 0.0
2018-May-12 05:57N 61°08' E 021°26'0 0.0
2018-May-12 05:24N 61°08' E 021°26'0 0.0
2018-May-12 04:55N 61°08' E 021°26'0 0.0
2018-May-12 04:25N 61°08' E 021°26'0 0.0
2018-May-12 04:00N 61°08' E 021°26'0 0.0
2018-May-12 03:17N 61°08' E 021°26'0 0.0
2018-May-12 02:52N 61°08' E 021°26'0 0.0
2018-May-12 02:31N 61°08' E 021°26'0 0.0
2018-May-12 01:55N 61°08' E 021°26'0 0.0
2018-May-12 01:30N 61°08' E 021°26'0 0.0
2018-May-12 00:59N 61°08' E 021°26'0 0.0
2018-May-12 00:30N 61°08' E 021°26'0 0.0
2018-May-11 23:59N 61°08' E 021°26'0 0.0
2018-May-11 23:30N 61°08' E 021°26'0 0.0
2018-May-11 22:58N 61°08' E 021°26'0 0.0
2018-May-11 22:30N 61°08' E 021°26'0 0.0
2018-May-11 21:58N 61°08' E 021°26'0 0.0
2018-May-11 21:26N 61°08' E 021°26'0 0.0
2018-May-11 21:00N 61°08' E 021°26'0 0.0
2018-May-11 20:29N 61°08' E 021°26'0 0.0
2018-May-11 19:54N 61°08' E 021°26'0 0.0
2018-May-11 19:20N 61°08' E 021°26'0 0.0
2018-May-11 18:50N 61°08' E 021°26'0 0.0
2018-May-11 18:30N 61°08' E 021°26'0 0.0
2018-May-11 17:58N 61°08' E 021°26'0 0.0
2018-May-11 17:27N 61°08' E 021°26'0 0.0
2018-May-11 16:50N 61°08' E 021°26'0 0.0
2018-May-11 16:25N 61°08' E 021°26'0 0.0
2018-May-11 15:52N 61°08' E 021°26'0 0.0
2018-May-11 15:23N 61°08' E 021°26'0 0.0
2018-May-11 14:58N 61°08' E 021°26'0 0.0
2018-May-11 14:27N 61°08' E 021°26'0 0.0
2018-May-11 13:57N 61°08' E 021°26'0 0.0
2018-May-11 13:29N 61°08' E 021°26'0 0.0
2018-May-11 12:55N 61°08' E 021°26'0 0.0
2018-May-11 12:30N 61°08' E 021°26'0 0.0
2018-May-11 11:59N 61°08' E 021°26'0 0.0
2018-May-11 11:28N 61°08' E 021°26'0 0.0
2018-May-11 11:00N 61°08' E 021°26'0 0.0
2018-May-11 10:29N 61°08' E 021°26'0 0.0
2018-May-11 09:58N 61°08' E 021°26'0 0.0
2018-May-11 09:25N 61°08' E 021°26'0 0.0
2018-May-11 09:00N 61°08' E 021°26'0 0.0
2018-May-11 08:29N 61°08' E 021°26'0 0.0
2018-May-11 07:59N 61°08' E 021°26'0 0.0
2018-May-11 07:30N 61°08' E 021°26'0 0.0
2018-May-11 06:59N 61°08' E 021°26'0 0.0
2018-May-11 06:29N 61°08' E 021°26'0 0.0
2018-May-11 05:55N 61°08' E 021°26'0 0.0
2018-May-11 05:30N 61°08' E 021°26'0 0.0
2018-May-11 04:59N 61°08' E 021°26'0 0.0
2018-May-11 04:30N 61°08' E 021°26'0 0.0
2018-May-11 03:59N 61°08' E 021°26'0 0.0
2018-May-11 03:28N 61°08' E 021°26'0 0.0
2018-May-11 02:49N 61°08' E 021°26'0 0.0
2018-May-11 02:30N 61°08' E 021°26'0 0.0
2018-May-11 01:54N 61°08' E 021°26'0 0.0
2018-May-11 01:20N 61°08' E 021°26'0 0.0
2018-May-11 00:58N 61°08' E 021°26'0 0.0
2018-May-11 00:19N 61°08' E 021°26'0 0.0
2018-May-10 23:57N 61°08' E 021°26'0 0.0
2018-May-10 23:28N 61°08' E 021°26'0 0.0
2018-May-10 22:59N 61°08' E 021°26'0 0.0
2018-May-10 22:29N 61°08' E 021°26'0 0.0
2018-May-10 22:00N 61°08' E 021°26'0 0.0
2018-May-10 21:25N 61°08' E 021°26'0 0.0
2018-May-10 20:58N 61°08' E 021°26'0 0.0
2018-May-10 20:27N 61°08' E 021°26'0 0.0
2018-May-10 19:59N 61°08' E 021°26'0 0.0
2018-May-10 19:28N 61°08' E 021°26'0 0.0
2018-May-10 18:55N 61°08' E 021°26'0 0.0
2018-May-10 18:24N 61°08' E 021°26'0 0.0
2018-May-10 18:00N 61°08' E 021°26'0 0.0
2018-May-10 17:28N 61°08' E 021°26'0 0.0
2018-May-10 16:49N 61°08' E 021°26'0 0.0
2018-May-10 16:17N 61°08' E 021°26'0 0.0
2018-May-10 15:52N 61°08' E 021°26'0 0.0
2018-May-10 15:22N 61°08' E 021°26'0 0.0
2018-May-10 14:51N 61°08' E 021°26'0 0.0
2018-May-10 14:30N 61°08' E 021°26'0 0.0
2018-May-10 13:58N 61°08' E 021°26'0 0.0
2018-May-10 13:26N 61°08' E 021°26'0 0.0
2018-May-10 12:57N 61°08' E 021°26'0 0.0
2018-May-10 12:29N 61°08' E 021°26'0 0.0
2018-May-10 11:55N 61°08' E 021°26'0 0.0
2018-May-10 11:29N 61°08' E 021°26'0 0.0
2018-May-10 10:57N 61°08' E 021°26'0 0.0
2018-May-10 10:29N 61°08' E 021°26'0 0.0
2018-May-10 09:57N 61°08' E 021°26'0 0.0
2018-May-10 09:29N 61°08' E 021°26'0 0.0
2018-May-10 09:00N 61°08' E 021°26'0 0.0
2018-May-10 08:28N 61°08' E 021°26'0 0.0
2018-May-10 07:59N 61°08' E 021°26'0 0.0
2018-May-10 07:28N 61°08' E 021°26'0 0.0
2018-May-10 06:52N 61°08' E 021°26'0 0.0
2018-May-10 06:28N 61°08' E 021°26'0 0.0
2018-May-10 05:54N 61°08' E 021°26'0 0.0
2018-May-10 05:28N 61°08' E 021°26'0 0.0
2018-May-10 04:59N 61°08' E 021°26'0 0.0
2018-May-10 04:28N 61°08' E 021°26'0 0.0
2018-May-10 04:00N 61°08' E 021°26'0 0.0
2018-May-10 03:30N 61°08' E 021°26'0 0.0
2018-May-10 03:00N 61°08' E 021°26'0 0.0
2018-May-10 02:27N 61°08' E 021°26'0 0.0
2018-May-10 01:58N 61°08' E 021°26'0 0.0
2018-May-10 01:19N 61°08' E 021°26'0 0.0
2018-May-10 00:52N 61°08' E 021°26'0 0.0
2018-May-10 00:19N 61°08' E 021°26'0 0.0
2018-May-09 23:54N 61°08' E 021°26'0 0.0
2018-May-09 23:25N 61°08' E 021°26'0 0.0
2018-May-09 22:55N 61°08' E 021°26'0 0.0
2018-May-09 22:28N 61°08' E 021°26'0 0.0
2018-May-09 21:55N 61°08' E 021°26'0 0.0
2018-May-09 21:30N 61°08' E 021°26'0 0.0
2018-May-09 20:56N 61°08' E 021°26'0 0.0
2018-May-09 20:29N 61°08' E 021°26'0 0.0
2018-May-09 19:49N 61°08' E 021°26'0 0.0
2018-May-09 19:28N 61°08' E 021°26'0 0.0
2018-May-09 18:49N 61°08' E 021°26'0 0.0
2018-May-09 18:22N 61°08' E 021°26'0 0.0
2018-May-09 17:49N 61°08' E 021°26'0 0.0
2018-May-09 17:19N 61°08' E 021°26'0 0.0
2018-May-09 16:46N 61°08' E 021°26'0 0.0
2018-May-09 16:16N 61°08' E 021°26'0 0.0
2018-May-09 15:49N 61°08' E 021°26'0 0.0
2018-May-09 15:28N 61°08' E 021°26'0 0.0
2018-May-09 14:52N 61°08' E 021°26'0 0.0
2018-May-09 14:30N 61°08' E 021°26'0 0.0
2018-May-09 13:58N 61°08' E 021°26'0 0.0
2018-May-09 13:28N 61°08' E 021°26'0 0.0
2018-May-09 12:55N 61°08' E 021°26'0 0.0
2018-May-09 12:28N 61°08' E 021°26'0 0.0
2018-May-09 11:55N 61°08' E 021°26'0 0.0
2018-May-09 11:22N 61°08' E 021°26'0 0.0
2018-May-09 10:59N 61°08' E 021°26'0 0.0
2018-May-09 10:25N 61°08' E 021°26'0 0.0
2018-May-09 10:00N 61°08' E 021°26'0 0.0
2018-May-09 09:28N 61°08' E 021°26'0 0.0
2018-May-09 09:00N 61°08' E 021°26'0 0.0
2018-May-09 08:30N 61°08' E 021°26'0 0.0
2018-May-09 08:00N 61°08' E 021°26'0 0.0
2018-May-09 07:30N 61°08' E 021°26'0 0.0
2018-May-09 06:57N 61°08' E 021°26'0 0.0
2018-May-09 06:20N 61°08' E 021°26'0 0.0
2018-May-09 05:51N 61°08' E 021°26'0 0.0
2018-May-09 05:20N 61°08' E 021°26'0 0.0
2018-May-09 05:00N 61°08' E 021°26'0 0.0
2018-May-09 04:27N 61°08' E 021°26'0 0.0
2018-May-09 03:58N 61°08' E 021°26'0 0.0
2018-May-09 03:30N 61°08' E 021°26'0 0.0
2018-May-09 02:59N 61°08' E 021°26'0 0.0
2018-May-09 02:29N 61°08' E 021°26'0 0.0
2018-May-09 01:48N 61°08' E 021°26'0 0.0
2018-May-09 01:30N 61°08' E 021°26'0 0.0
2018-May-09 00:59N 61°08' E 021°26'0 0.0
2018-May-09 00:28N 61°08' E 021°26'0 0.0
2018-May-08 23:58N 61°08' E 021°26'0 0.0
2018-May-08 23:27N 61°08' E 021°26'0 0.0
2018-May-08 22:57N 61°08' E 021°26'0 0.0
2018-May-08 22:29N 61°08' E 021°26'0 0.0
2018-May-08 21:58N 61°08' E 021°26'0 0.0
2018-May-08 21:12N 61°08' E 021°26'0 0.0
2018-May-08 21:00N 61°08' E 021°26'0 0.0
2018-May-08 20:30N 61°08' E 021°26'0 0.0
2018-May-08 20:00N 61°08' E 021°26'0 0.0
2018-May-08 19:26N 61°08' E 021°26'0 0.0
2018-May-08 19:00N 61°08' E 021°26'0 0.0
2018-May-08 18:29N 61°08' E 021°26'0 0.0
2018-May-08 17:58N 61°08' E 021°26'0 0.0
2018-May-08 17:30N 61°08' E 021°26'0 0.0
2018-May-08 17:00N 61°08' E 021°26'0 0.0
2018-May-08 16:30N 61°08' E 021°26'0 0.0
2018-May-08 16:00N 61°08' E 021°26'0 0.0
2018-May-08 15:30N 61°08' E 021°26'0 0.0
2018-May-08 15:00N 61°08' E 021°26'0 0.0
2018-May-08 14:30N 61°08' E 021°26'0 0.0
2018-May-08 13:59N 61°08' E 021°26'0 0.0
2018-May-08 13:24N 61°08' E 021°26'0 0.0
2018-May-08 12:55N 61°08' E 021°26'0 0.0
2018-May-08 12:30N 61°08' E 021°26'0 0.0
2018-May-08 11:57N 61°08' E 021°26'0 0.0
2018-May-08 11:30N 61°08' E 021°26'0 0.0
2018-May-08 10:51N 61°08' E 021°26'0 0.0
2018-May-08 10:30N 61°08' E 021°26'0 0.0
2018-May-08 09:54N 61°08' E 021°26'0 0.0
2018-May-08 09:30N 61°08' E 021°26'0 0.0
2018-May-08 08:51N 61°08' E 021°26'0 0.0
2018-May-08 08:30N 61°08' E 021°26'0 0.0
2018-May-08 07:54N 61°08' E 021°26'0 0.0
2018-May-08 07:26N 61°08' E 021°26'  

Dump ship's entire track history